sensor_id;sensor_type;location;lat;lon;timestamp;P1;durP1;ratioP1;P2;durP2;ratioP2
42598;SDS011;28225;42.714;23.860;2022-10-26T00:02:03;37.63;;;13.93;;
42598;SDS011;28225;42.714;23.860;2022-10-26T00:04:28;31.23;;;12.82;;
42598;SDS011;28225;42.714;23.860;2022-10-26T00:06:54;26.67;;;13.25;;
42598;SDS011;28225;42.714;23.860;2022-10-26T00:09:19;32.65;;;14.52;;
42598;SDS011;28225;42.714;23.860;2022-10-26T00:11:44;32.08;;;14.75;;
42598;SDS011;28225;42.714;23.860;2022-10-26T00:14:10;32.40;;;14.95;;
42598;SDS011;28225;42.714;23.860;2022-10-26T00:16:35;31.73;;;14.45;;
42598;SDS011;28225;42.714;23.860;2022-10-26T00:19:01;27.50;;;13.68;;
42598;SDS011;28225;42.714;23.860;2022-10-26T00:21:26;25.73;;;12.02;;
42598;SDS011;28225;42.714;23.860;2022-10-26T00:23:52;20.20;;;10.15;;
42598;SDS011;28225;42.714;23.860;2022-10-26T00:26:17;16.77;;;8.32;;
42598;SDS011;28225;42.714;23.860;2022-10-26T00:28:43;19.98;;;7.57;;
42598;SDS011;28225;42.714;23.860;2022-10-26T00:31:11;17.08;;;8.07;;
42598;SDS011;28225;42.714;23.860;2022-10-26T00:33:38;16.85;;;9.45;;
42598;SDS011;28225;42.714;23.860;2022-10-26T00:36:03;33.22;;;15.15;;
42598;SDS011;28225;42.714;23.860;2022-10-26T00:38:29;37.72;;;16.17;;
42598;SDS011;28225;42.714;23.860;2022-10-26T00:40:54;31.77;;;15.25;;
42598;SDS011;28225;42.714;23.860;2022-10-26T00:45:46;30.27;;;14.43;;
42598;SDS011;28225;42.714;23.860;2022-10-26T00:48:16;27.08;;;11.82;;
42598;SDS011;28225;42.714;23.860;2022-10-26T00:50:47;24.15;;;11.15;;
42598;SDS011;28225;42.714;23.860;2022-10-26T00:53:13;20.02;;;11.07;;
42598;SDS011;28225;42.714;23.860;2022-10-26T00:55:40;20.80;;;11.07;;
42598;SDS011;28225;42.714;23.860;2022-10-26T00:58:09;32.13;;;13.45;;
42598;SDS011;28225;42.714;23.860;2022-10-26T01:00:35;40.85;;;18.27;;
42598;SDS011;28225;42.714;23.860;2022-10-26T01:03:02;41.78;;;17.05;;
42598;SDS011;28225;42.714;23.860;2022-10-26T01:05:30;40.08;;;18.02;;
42598;SDS011;28225;42.714;23.860;2022-10-26T01:07:56;27.40;;;15.70;;
42598;SDS011;28225;42.714;23.860;2022-10-26T01:10:22;27.77;;;15.57;;
42598;SDS011;28225;42.714;23.860;2022-10-26T01:12:49;28.85;;;14.65;;
42598;SDS011;28225;42.714;23.860;2022-10-26T01:15:15;31.88;;;13.95;;
42598;SDS011;28225;42.714;23.860;2022-10-26T01:23:20;28.15;;;14.38;;
42598;SDS011;28225;42.714;23.860;2022-10-26T01:31:13;31.52;;;17.92;;
42598;SDS011;28225;42.714;23.860;2022-10-26T01:39:09;35.60;;;14.63;;
42598;SDS011;28225;42.714;23.860;2022-10-26T01:41:49;33.20;;;14.13;;
42598;SDS011;28225;42.714;23.860;2022-10-26T01:46:48;21.42;;;9.20;;
42598;SDS011;28225;42.714;23.860;2022-10-26T01:49:15;27.40;;;9.88;;
42598;SDS011;28225;42.714;23.860;2022-10-26T01:51:44;21.40;;;9.38;;
42598;SDS011;28225;42.714;23.860;2022-10-26T01:54:12;16.25;;;8.85;;
42598;SDS011;28225;42.714;23.860;2022-10-26T01:56:38;19.10;;;8.40;;
42598;SDS011;28225;42.714;23.860;2022-10-26T02:07:26;14.20;;;8.07;;
42598;SDS011;28225;42.714;23.860;2022-10-26T02:15:16;16.52;;;7.30;;
42598;SDS011;28225;42.714;23.860;2022-10-26T02:20:39;18.88;;;8.13;;
42598;SDS011;28225;42.714;23.860;2022-10-26T02:23:08;18.23;;;6.93;;
42598;SDS011;28225;42.714;23.860;2022-10-26T02:25:36;12.60;;;6.63;;
42598;SDS011;28225;42.714;23.860;2022-10-26T02:28:06;11.63;;;7.00;;
42598;SDS011;28225;42.714;23.860;2022-10-26T02:30:34;16.88;;;7.05;;
42598;SDS011;28225;42.714;23.860;2022-10-26T02:33:00;19.27;;;6.97;;
42598;SDS011;28225;42.714;23.860;2022-10-26T02:35:31;22.20;;;9.05;;
42598;SDS011;28225;42.714;23.860;2022-10-26T02:37:59;30.73;;;11.93;;
42598;SDS011;28225;42.714;23.860;2022-10-26T02:40:26;28.98;;;11.18;;
42598;SDS011;28225;42.714;23.860;2022-10-26T02:42:53;18.63;;;9.55;;
42598;SDS011;28225;42.714;23.860;2022-10-26T02:45:29;12.57;;;6.33;;
42598;SDS011;28225;42.714;23.860;2022-10-26T02:47:57;12.63;;;6.32;;
42598;SDS011;28225;42.714;23.860;2022-10-26T02:50:25;10.93;;;5.65;;
42598;SDS011;28225;42.714;23.860;2022-10-26T02:55:47;9.27;;;4.95;;
42598;SDS011;28225;42.714;23.860;2022-10-26T02:58:15;23.50;;;12.60;;
42598;SDS011;28225;42.714;23.860;2022-10-26T03:00:44;19.48;;;10.55;;
42598;SDS011;28225;42.714;23.860;2022-10-26T03:03:10;22.50;;;11.13;;
42598;SDS011;28225;42.714;23.860;2022-10-26T03:05:39;17.02;;;9.70;;
42598;SDS011;28225;42.714;23.860;2022-10-26T03:08:06;17.23;;;9.07;;
42598;SDS011;28225;42.714;23.860;2022-10-26T03:10:31;17.35;;;9.38;;
42598;SDS011;28225;42.714;23.860;2022-10-26T03:12:57;14.77;;;6.15;;
42598;SDS011;28225;42.714;23.860;2022-10-26T03:15:23;12.43;;;7.40;;
42598;SDS011;28225;42.714;23.860;2022-10-26T03:17:48;14.82;;;7.22;;
42598;SDS011;28225;42.714;23.860;2022-10-26T03:20:14;11.02;;;6.88;;
42598;SDS011;28225;42.714;23.860;2022-10-26T03:22:39;20.77;;;8.63;;
42598;SDS011;28225;42.714;23.860;2022-10-26T03:25:05;27.42;;;13.07;;
42598;SDS011;28225;42.714;23.860;2022-10-26T03:27:31;35.05;;;15.00;;
42598;SDS011;28225;42.714;23.860;2022-10-26T03:29:56;32.55;;;12.82;;
42598;SDS011;28225;42.714;23.860;2022-10-26T03:32:22;31.70;;;13.48;;
42598;SDS011;28225;42.714;23.860;2022-10-26T03:34:47;25.13;;;12.25;;
42598;SDS011;28225;42.714;23.860;2022-10-26T03:37:12;19.77;;;11.52;;
42598;SDS011;28225;42.714;23.860;2022-10-26T03:39:38;23.08;;;10.45;;
42598;SDS011;28225;42.714;23.860;2022-10-26T03:42:03;26.17;;;11.80;;
42598;SDS011;28225;42.714;23.860;2022-10-26T03:44:29;19.75;;;11.15;;
42598;SDS011;28225;42.714;23.860;2022-10-26T03:46:55;22.58;;;10.32;;
42598;SDS011;28225;42.714;23.860;2022-10-26T03:49:20;25.45;;;10.35;;
42598;SDS011;28225;42.714;23.860;2022-10-26T03:51:46;30.73;;;10.57;;
42598;SDS011;28225;42.714;23.860;2022-10-26T03:54:12;23.38;;;10.32;;
42598;SDS011;28225;42.714;23.860;2022-10-26T03:56:37;26.20;;;10.05;;
42598;SDS011;28225;42.714;23.860;2022-10-26T03:59:03;27.08;;;9.70;;
42598;SDS011;28225;42.714;23.860;2022-10-26T04:01:28;20.02;;;9.40;;
42598;SDS011;28225;42.714;23.860;2022-10-26T04:03:54;22.98;;;10.77;;
42598;SDS011;28225;42.714;23.860;2022-10-26T04:06:19;21.00;;;8.38;;
42598;SDS011;28225;42.714;23.860;2022-10-26T04:08:44;22.00;;;9.80;;
42598;SDS011;28225;42.714;23.860;2022-10-26T04:11:10;26.55;;;9.90;;
42598;SDS011;28225;42.714;23.860;2022-10-26T04:13:35;25.13;;;11.50;;
42598;SDS011;28225;42.714;23.860;2022-10-26T04:16:01;30.90;;;11.70;;
42598;SDS011;28225;42.714;23.860;2022-10-26T04:18:26;26.83;;;10.77;;
42598;SDS011;28225;42.714;23.860;2022-10-26T04:20:52;20.45;;;10.15;;
42598;SDS011;28225;42.714;23.860;2022-10-26T04:23:17;44.22;;;13.88;;
42598;SDS011;28225;42.714;23.860;2022-10-26T04:25:43;39.17;;;12.88;;
42598;SDS011;28225;42.714;23.860;2022-10-26T04:28:09;32.92;;;11.38;;
42598;SDS011;28225;42.714;23.860;2022-10-26T04:30:36;37.85;;;17.92;;
42598;SDS011;28225;42.714;23.860;2022-10-26T04:33:02;38.22;;;18.95;;
42598;SDS011;28225;42.714;23.860;2022-10-26T04:35:28;17.27;;;10.30;;
42598;SDS011;28225;42.714;23.860;2022-10-26T04:38:01;21.02;;;8.15;;
42598;SDS011;28225;42.714;23.860;2022-10-26T04:40:28;17.10;;;8.45;;
42598;SDS011;28225;42.714;23.860;2022-10-26T04:42:54;16.45;;;8.43;;
42598;SDS011;28225;42.714;23.860;2022-10-26T04:45:20;17.27;;;8.88;;
42598;SDS011;28225;42.714;23.860;2022-10-26T04:47:46;41.88;;;17.38;;
42598;SDS011;28225;42.714;23.860;2022-10-26T04:50:12;39.30;;;18.40;;
42598;SDS011;28225;42.714;23.860;2022-10-26T04:52:38;40.83;;;19.13;;
42598;SDS011;28225;42.714;23.860;2022-10-26T04:55:05;49.50;;;23.35;;
42598;SDS011;28225;42.714;23.860;2022-10-26T04:57:31;80.15;;;35.95;;
42598;SDS011;28225;42.714;23.860;2022-10-26T05:02:26;87.28;;;35.55;;
42598;SDS011;28225;42.714;23.860;2022-10-26T05:04:52;70.43;;;31.67;;
42598;SDS011;28225;42.714;23.860;2022-10-26T05:07:17;62.97;;;27.23;;
42598;SDS011;28225;42.714;23.860;2022-10-26T05:09:43;61.45;;;27.85;;
42598;SDS011;28225;42.714;23.860;2022-10-26T05:12:08;69.38;;;28.10;;
42598;SDS011;28225;42.714;23.860;2022-10-26T05:14:34;56.13;;;26.08;;
42598;SDS011;28225;42.714;23.860;2022-10-26T05:16:59;43.97;;;19.30;;
42598;SDS011;28225;42.714;23.860;2022-10-26T05:19:25;33.97;;;15.27;;
42598;SDS011;28225;42.714;23.860;2022-10-26T05:21:50;27.33;;;13.43;;
42598;SDS011;28225;42.714;23.860;2022-10-26T05:24:17;31.15;;;11.13;;
42598;SDS011;28225;42.714;23.860;2022-10-26T05:26:43;21.58;;;10.82;;
42598;SDS011;28225;42.714;23.860;2022-10-26T05:29:08;42.53;;;19.15;;
42598;SDS011;28225;42.714;23.860;2022-10-26T05:31:34;69.95;;;28.13;;
42598;SDS011;28225;42.714;23.860;2022-10-26T05:33:59;61.50;;;26.88;;
42598;SDS011;28225;42.714;23.860;2022-10-26T05:36:24;64.30;;;30.02;;
42598;SDS011;28225;42.714;23.860;2022-10-26T05:38:50;64.60;;;27.17;;
42598;SDS011;28225;42.714;23.860;2022-10-26T05:41:15;88.68;;;33.22;;
42598;SDS011;28225;42.714;23.860;2022-10-26T05:43:41;62.47;;;32.22;;
42598;SDS011;28225;42.714;23.860;2022-10-26T05:46:06;62.58;;;28.27;;
42598;SDS011;28225;42.714;23.860;2022-10-26T05:48:32;63.75;;;29.80;;
42598;SDS011;28225;42.714;23.860;2022-10-26T05:50:58;71.25;;;33.17;;
42598;SDS011;28225;42.714;23.860;2022-10-26T05:53:24;66.25;;;30.60;;
42598;SDS011;28225;42.714;23.860;2022-10-26T05:55:50;67.20;;;27.42;;
42598;SDS011;28225;42.714;23.860;2022-10-26T05:58:16;73.22;;;27.98;;
42598;SDS011;28225;42.714;23.860;2022-10-26T06:01:04;54.80;;;23.10;;
42598;SDS011;28225;42.714;23.860;2022-10-26T06:06:26;43.83;;;18.20;;
42598;SDS011;28225;42.714;23.860;2022-10-26T06:08:58;42.05;;;19.17;;
42598;SDS011;28225;42.714;23.860;2022-10-26T06:11:23;44.88;;;18.92;;
42598;SDS011;28225;42.714;23.860;2022-10-26T06:13:49;71.95;;;27.00;;
42598;SDS011;28225;42.714;23.860;2022-10-26T06:21:49;97.20;;;40.75;;
42598;SDS011;28225;42.714;23.860;2022-10-26T06:32:14;45.03;;;18.25;;
42598;SDS011;28225;42.714;23.860;2022-10-26T06:34:42;47.58;;;19.00;;
42598;SDS011;28225;42.714;23.860;2022-10-26T06:37:09;31.65;;;13.60;;
42598;SDS011;28225;42.714;23.860;2022-10-26T06:39:35;31.33;;;15.80;;
42598;SDS011;28225;42.714;23.860;2022-10-26T06:42:04;30.17;;;15.68;;
42598;SDS011;28225;42.714;23.860;2022-10-26T06:44:30;49.83;;;26.70;;
42598;SDS011;28225;42.714;23.860;2022-10-26T06:47:08;40.67;;;22.90;;
42598;SDS011;28225;42.714;23.860;2022-10-26T06:49:42;35.22;;;18.50;;
42598;SDS011;28225;42.714;23.860;2022-10-26T06:52:34;21.38;;;13.18;;
42598;SDS011;28225;42.714;23.860;2022-10-26T06:55:03;25.92;;;13.00;;
42598;SDS011;28225;42.714;23.860;2022-10-26T06:57:33;20.95;;;13.38;;
42598;SDS011;28225;42.714;23.860;2022-10-26T07:02:51;17.70;;;12.77;;
42598;SDS011;28225;42.714;23.860;2022-10-26T07:05:17;19.92;;;13.05;;
42598;SDS011;28225;42.714;23.860;2022-10-26T07:07:43;15.82;;;11.45;;
42598;SDS011;28225;42.714;23.860;2022-10-26T07:10:10;21.88;;;11.15;;
42598;SDS011;28225;42.714;23.860;2022-10-26T07:12:36;24.73;;;11.82;;
42598;SDS011;28225;42.714;23.860;2022-10-26T07:15:02;40.30;;;11.20;;
42598;SDS011;28225;42.714;23.860;2022-10-26T07:17:29;10.50;;;7.82;;
42598;SDS011;28225;42.714;23.860;2022-10-26T07:19:54;8.20;;;5.25;;
42598;SDS011;28225;42.714;23.860;2022-10-26T07:22:20;7.10;;;5.57;;
42598;SDS011;28225;42.714;23.860;2022-10-26T07:24:46;8.30;;;5.05;;
42598;SDS011;28225;42.714;23.860;2022-10-26T07:27:15;11.60;;;5.18;;
42598;SDS011;28225;42.714;23.860;2022-10-26T07:29:41;9.07;;;4.57;;
42598;SDS011;28225;42.714;23.860;2022-10-26T07:32:06;5.63;;;3.45;;
42598;SDS011;28225;42.714;23.860;2022-10-26T07:34:32;8.20;;;3.63;;
42598;SDS011;28225;42.714;23.860;2022-10-26T07:36:58;7.03;;;3.85;;
42598;SDS011;28225;42.714;23.860;2022-10-26T07:39:24;10.77;;;4.18;;
42598;SDS011;28225;42.714;23.860;2022-10-26T07:41:49;15.95;;;5.13;;
42598;SDS011;28225;42.714;23.860;2022-10-26T07:44:15;6.20;;;4.15;;
42598;SDS011;28225;42.714;23.860;2022-10-26T07:46:40;5.88;;;3.75;;
42598;SDS011;28225;42.714;23.860;2022-10-26T07:49:06;8.77;;;4.55;;
42598;SDS011;28225;42.714;23.860;2022-10-26T07:51:31;8.15;;;4.43;;
42598;SDS011;28225;42.714;23.860;2022-10-26T07:53:57;9.07;;;5.18;;
42598;SDS011;28225;42.714;23.860;2022-10-26T07:56:22;8.27;;;5.28;;
42598;SDS011;28225;42.714;23.860;2022-10-26T07:58:48;9.77;;;5.38;;
42598;SDS011;28225;42.714;23.860;2022-10-26T08:01:16;8.10;;;5.30;;
42598;SDS011;28225;42.714;23.860;2022-10-26T08:03:42;11.98;;;5.43;;
42598;SDS011;28225;42.714;23.860;2022-10-26T08:06:07;13.20;;;5.63;;
42598;SDS011;28225;42.714;23.860;2022-10-26T08:08:34;11.98;;;5.15;;
42598;SDS011;28225;42.714;23.860;2022-10-26T08:11:00;10.43;;;4.45;;
42598;SDS011;28225;42.714;23.860;2022-10-26T08:13:26;10.75;;;4.53;;
42598;SDS011;28225;42.714;23.860;2022-10-26T08:15:58;6.45;;;4.15;;
42598;SDS011;28225;42.714;23.860;2022-10-26T08:18:25;7.55;;;4.28;;
42598;SDS011;28225;42.714;23.860;2022-10-26T08:20:51;12.38;;;4.70;;
42598;SDS011;28225;42.714;23.860;2022-10-26T08:23:16;5.80;;;3.38;;
42598;SDS011;28225;42.714;23.860;2022-10-26T08:25:42;6.43;;;3.97;;
42598;SDS011;28225;42.714;23.860;2022-10-26T08:28:07;6.75;;;4.18;;
42598;SDS011;28225;42.714;23.860;2022-10-26T08:30:33;4.88;;;3.03;;
42598;SDS011;28225;42.714;23.860;2022-10-26T08:33:02;6.75;;;3.92;;
42598;SDS011;28225;42.714;23.860;2022-10-26T08:35:29;7.63;;;4.03;;
42598;SDS011;28225;42.714;23.860;2022-10-26T08:37:55;15.30;;;3.80;;
42598;SDS011;28225;42.714;23.860;2022-10-26T08:40:31;5.32;;;2.05;;
42598;SDS011;28225;42.714;23.860;2022-10-26T08:43:18;6.30;;;2.10;;
42598;SDS011;28225;42.714;23.860;2022-10-26T08:45:54;3.10;;;2.13;;
42598;SDS011;28225;42.714;23.860;2022-10-26T08:48:24;4.07;;;1.80;;
42598;SDS011;28225;42.714;23.860;2022-10-26T08:50:57;12.02;;;2.63;;
42598;SDS011;28225;42.714;23.860;2022-10-26T08:56:27;10.65;;;2.13;;
42598;SDS011;28225;42.714;23.860;2022-10-26T08:58:53;6.68;;;2.00;;
42598;SDS011;28225;42.714;23.860;2022-10-26T09:01:29;3.40;;;2.28;;
42598;SDS011;28225;42.714;23.860;2022-10-26T09:14:16;4.40;;;1.63;;
42598;SDS011;28225;42.714;23.860;2022-10-26T09:16:52;14.18;;;2.42;;
42598;SDS011;28225;42.714;23.860;2022-10-26T09:22:30;4.70;;;2.25;;
42598;SDS011;28225;42.714;23.860;2022-10-26T09:25:15;5.18;;;1.95;;
42598;SDS011;28225;42.714;23.860;2022-10-26T09:27:44;7.60;;;1.90;;
42598;SDS011;28225;42.714;23.860;2022-10-26T09:30:14;2.85;;;1.70;;
42598;SDS011;28225;42.714;23.860;2022-10-26T09:32:42;3.83;;;2.30;;
42598;SDS011;28225;42.714;23.860;2022-10-26T09:38:14;8.50;;;2.40;;
42598;SDS011;28225;42.714;23.860;2022-10-26T09:43:43;4.03;;;1.98;;
42598;SDS011;28225;42.714;23.860;2022-10-26T09:46:12;4.45;;;2.00;;
42598;SDS011;28225;42.714;23.860;2022-10-26T09:48:54;7.55;;;4.65;;
42598;SDS011;28225;42.714;23.860;2022-10-26T09:51:21;4.22;;;2.20;;
42598;SDS011;28225;42.714;23.860;2022-10-26T09:53:47;6.80;;;1.65;;
42598;SDS011;28225;42.714;23.860;2022-10-26T09:56:13;7.85;;;2.10;;
42598;SDS011;28225;42.714;23.860;2022-10-26T09:58:40;3.40;;;1.85;;
42598;SDS011;28225;42.714;23.860;2022-10-26T10:01:21;5.22;;;1.90;;
42598;SDS011;28225;42.714;23.860;2022-10-26T10:06:38;37.20;;;29.40;;
42598;SDS011;28225;42.714;23.860;2022-10-26T10:09:09;16.02;;;12.35;;
42598;SDS011;28225;42.714;23.860;2022-10-26T10:11:36;4.32;;;2.53;;
42598;SDS011;28225;42.714;23.860;2022-10-26T10:14:07;47.10;;;5.07;;
42598;SDS011;28225;42.714;23.860;2022-10-26T10:16:37;11.77;;;5.32;;
42598;SDS011;28225;42.714;23.860;2022-10-26T10:19:02;18.70;;;11.02;;
42598;SDS011;28225;42.714;23.860;2022-10-26T10:21:38;3.58;;;1.60;;
42598;SDS011;28225;42.714;23.860;2022-10-26T10:27:02;2.93;;;2.20;;
42598;SDS011;28225;42.714;23.860;2022-10-26T10:32:14;6.35;;;3.08;;
42598;SDS011;28225;42.714;23.860;2022-10-26T10:34:47;5.57;;;3.17;;
42598;SDS011;28225;42.714;23.860;2022-10-26T10:37:21;3.40;;;1.58;;
42598;SDS011;28225;42.714;23.860;2022-10-26T10:40:01;6.53;;;4.60;;
42598;SDS011;28225;42.714;23.860;2022-10-26T10:42:33;5.72;;;2.17;;
42598;SDS011;28225;42.714;23.860;2022-10-26T10:44:59;9.52;;;2.10;;
42598;SDS011;28225;42.714;23.860;2022-10-26T10:47:35;4.07;;;1.33;;
42598;SDS011;28225;42.714;23.860;2022-10-26T10:52:29;2.58;;;1.60;;
42598;SDS011;28225;42.714;23.860;2022-10-26T10:55:02;4.93;;;2.17;;
42598;SDS011;28225;42.714;23.860;2022-10-26T11:00:20;6.25;;;2.50;;
42598;SDS011;28225;42.714;23.860;2022-10-26T11:02:54;2.03;;;1.45;;
42598;SDS011;28225;42.714;23.860;2022-10-26T11:11:27;4.00;;;1.90;;
42598;SDS011;28225;42.714;23.860;2022-10-26T11:14:01;3.63;;;2.28;;
42598;SDS011;28225;42.714;23.860;2022-10-26T11:16:35;2.65;;;1.92;;
42598;SDS011;28225;42.714;23.860;2022-10-26T11:22:31;6.40;;;5.00;;
42598;SDS011;28225;42.714;23.860;2022-10-26T11:25:06;7.75;;;5.05;;
42598;SDS011;28225;42.714;23.860;2022-10-26T11:27:46;5.57;;;3.42;;
42598;SDS011;28225;42.714;23.860;2022-10-26T11:30:17;1.80;;;1.35;;
42598;SDS011;28225;42.714;23.860;2022-10-26T11:32:45;4.90;;;2.40;;
42598;SDS011;28225;42.714;23.860;2022-10-26T11:35:30;6.55;;;3.72;;
42598;SDS011;28225;42.714;23.860;2022-10-26T11:38:02;3.35;;;2.30;;
42598;SDS011;28225;42.714;23.860;2022-10-26T11:51:03;7.22;;;5.82;;
42598;SDS011;28225;42.714;23.860;2022-10-26T11:53:30;23.90;;;20.00;;
42598;SDS011;28225;42.714;23.860;2022-10-26T11:56:01;9.57;;;8.40;;
42598;SDS011;28225;42.714;23.860;2022-10-26T11:58:27;6.15;;;4.00;;
42598;SDS011;28225;42.714;23.860;2022-10-26T12:00:55;14.13;;;7.28;;
42598;SDS011;28225;42.714;23.860;2022-10-26T12:03:33;5.50;;;2.30;;
42598;SDS011;28225;42.714;23.860;2022-10-26T12:06:01;4.38;;;2.85;;
42598;SDS011;28225;42.714;23.860;2022-10-26T12:17:05;3.30;;;3.00;;
42598;SDS011;28225;42.714;23.860;2022-10-26T12:19:45;3.50;;;2.28;;
42598;SDS011;28225;42.714;23.860;2022-10-26T12:22:19;5.45;;;3.10;;
42598;SDS011;28225;42.714;23.860;2022-10-26T12:25:33;6.30;;;5.70;;
42598;SDS011;28225;42.714;23.860;2022-10-26T12:35:02;25.30;;;16.83;;
42598;SDS011;28225;42.714;23.860;2022-10-26T12:37:48;28.92;;;23.55;;
42598;SDS011;28225;42.714;23.860;2022-10-26T12:42:54;4.00;;;2.05;;
42598;SDS011;28225;42.714;23.860;2022-10-26T12:45:20;2.65;;;1.52;;
42598;SDS011;28225;42.714;23.860;2022-10-26T13:09:43;1.77;;;0.95;;
42598;SDS011;28225;42.714;23.860;2022-10-26T13:12:09;1.15;;;0.82;;
42598;SDS011;28225;42.714;23.860;2022-10-26T13:14:35;2.67;;;0.90;;
42598;SDS011;28225;42.714;23.860;2022-10-26T13:17:05;4.35;;;1.25;;
42598;SDS011;28225;42.714;23.860;2022-10-26T13:22:12;4.70;;;1.60;;
42598;SDS011;28225;42.714;23.860;2022-10-26T13:24:49;13.65;;;1.52;;
42598;SDS011;28225;42.714;23.860;2022-10-26T13:32:51;4.40;;;1.13;;
42598;SDS011;28225;42.714;23.860;2022-10-26T13:35:18;7.35;;;1.50;;
42598;SDS011;28225;42.714;23.860;2022-10-26T13:37:46;1.58;;;1.02;;
42598;SDS011;28225;42.714;23.860;2022-10-26T13:40:15;3.50;;;1.88;;
42598;SDS011;28225;42.714;23.860;2022-10-26T13:42:45;8.65;;;3.17;;
42598;SDS011;28225;42.714;23.860;2022-10-26T13:45:33;3.17;;;2.35;;
42598;SDS011;28225;42.714;23.860;2022-10-26T13:50:51;6.93;;;1.23;;
42598;SDS011;28225;42.714;23.860;2022-10-26T13:53:22;1.13;;;1.02;;
42598;SDS011;28225;42.714;23.860;2022-10-26T13:55:56;1.08;;;0.90;;
42598;SDS011;28225;42.714;23.860;2022-10-26T13:58:40;2.50;;;1.02;;
42598;SDS011;28225;42.714;23.860;2022-10-26T14:03:38;5.15;;;1.90;;
42598;SDS011;28225;42.714;23.860;2022-10-26T14:06:11;4.80;;;2.03;;
42598;SDS011;28225;42.714;23.860;2022-10-26T14:08:40;5.00;;;2.35;;
42598;SDS011;28225;42.714;23.860;2022-10-26T14:11:06;4.38;;;2.95;;
42598;SDS011;28225;42.714;23.860;2022-10-26T14:16:00;2.88;;;2.28;;
42598;SDS011;28225;42.714;23.860;2022-10-26T14:18:27;7.28;;;2.97;;
42598;SDS011;28225;42.714;23.860;2022-10-26T14:21:04;1.85;;;1.25;;
42598;SDS011;28225;42.714;23.860;2022-10-26T14:23:32;5.18;;;1.88;;
42598;SDS011;28225;42.714;23.860;2022-10-26T14:26:00;5.03;;;2.03;;
42598;SDS011;28225;42.714;23.860;2022-10-26T14:28:27;4.88;;;3.17;;
42598;SDS011;28225;42.714;23.860;2022-10-26T14:31:09;12.57;;;3.40;;
42598;SDS011;28225;42.714;23.860;2022-10-26T14:33:36;19.00;;;4.78;;
42598;SDS011;28225;42.714;23.860;2022-10-26T14:36:01;5.20;;;3.28;;
42598;SDS011;28225;42.714;23.860;2022-10-26T14:38:27;7.55;;;3.80;;
42598;SDS011;28225;42.714;23.860;2022-10-26T14:40:55;12.43;;;5.95;;
42598;SDS011;28225;42.714;23.860;2022-10-26T14:43:22;19.80;;;7.03;;
42598;SDS011;28225;42.714;23.860;2022-10-26T14:45:49;17.02;;;6.45;;
42598;SDS011;28225;42.714;23.860;2022-10-26T14:48:21;8.65;;;5.43;;
42598;SDS011;28225;42.714;23.860;2022-10-26T14:51:01;12.77;;;6.15;;
42598;SDS011;28225;42.714;23.860;2022-10-26T14:53:36;151.75;;;17.52;;
42598;SDS011;28225;42.714;23.860;2022-10-26T14:56:03;72.28;;;13.40;;
42598;SDS011;28225;42.714;23.860;2022-10-26T14:58:31;50.65;;;16.63;;
42598;SDS011;28225;42.714;23.860;2022-10-26T15:01:14;9.63;;;6.43;;
42598;SDS011;28225;42.714;23.860;2022-10-26T15:03:41;37.83;;;13.48;;
42598;SDS011;28225;42.714;23.860;2022-10-26T15:08:55;26.42;;;14.60;;
42598;SDS011;28225;42.714;23.860;2022-10-26T15:11:23;37.25;;;18.23;;
42598;SDS011;28225;42.714;23.860;2022-10-26T15:13:49;26.23;;;14.63;;
42598;SDS011;28225;42.714;23.860;2022-10-26T15:16:16;20.50;;;11.75;;
42598;SDS011;28225;42.714;23.860;2022-10-26T15:18:43;17.92;;;5.88;;
42598;SDS011;28225;42.714;23.860;2022-10-26T15:21:26;33.95;;;4.88;;
42598;SDS011;28225;42.714;23.860;2022-10-26T15:23:55;7.95;;;3.55;;
42598;SDS011;28225;42.714;23.860;2022-10-26T15:26:21;8.40;;;3.80;;
42598;SDS011;28225;42.714;23.860;2022-10-26T15:28:47;9.38;;;2.85;;
42598;SDS011;28225;42.714;23.860;2022-10-26T15:33:43;5.78;;;3.28;;
42598;SDS011;28225;42.714;23.860;2022-10-26T15:36:29;6.40;;;4.10;;
42598;SDS011;28225;42.714;23.860;2022-10-26T15:38:56;35.53;;;6.10;;
42598;SDS011;28225;42.714;23.860;2022-10-26T15:41:26;18.80;;;4.30;;
42598;SDS011;28225;42.714;23.860;2022-10-26T15:43:57;4.90;;;3.58;;
42598;SDS011;28225;42.714;23.860;2022-10-26T15:46:28;7.00;;;3.95;;
42598;SDS011;28225;42.714;23.860;2022-10-26T15:48:55;7.30;;;4.00;;
42598;SDS011;28225;42.714;23.860;2022-10-26T15:51:22;12.98;;;4.18;;
42598;SDS011;28225;42.714;23.860;2022-10-26T15:53:48;9.93;;;4.20;;
42598;SDS011;28225;42.714;23.860;2022-10-26T15:56:14;20.52;;;4.65;;
42598;SDS011;28225;42.714;23.860;2022-10-26T15:58:44;6.93;;;3.05;;
42598;SDS011;28225;42.714;23.860;2022-10-26T16:01:14;5.97;;;3.45;;
42598;SDS011;28225;42.714;23.860;2022-10-26T16:03:41;9.10;;;4.07;;
42598;SDS011;28225;42.714;23.860;2022-10-26T16:06:07;12.07;;;3.65;;
42598;SDS011;28225;42.714;23.860;2022-10-26T16:08:37;16.52;;;5.80;;
42598;SDS011;28225;42.714;23.860;2022-10-26T16:11:03;18.88;;;4.80;;
42598;SDS011;28225;42.714;23.860;2022-10-26T16:13:29;5.63;;;3.90;;
42598;SDS011;28225;42.714;23.860;2022-10-26T16:15:54;11.95;;;3.65;;
42598;SDS011;28225;42.714;23.860;2022-10-26T16:18:20;5.53;;;3.55;;
42598;SDS011;28225;42.714;23.860;2022-10-26T16:20:45;11.88;;;3.15;;
42598;SDS011;28225;42.714;23.860;2022-10-26T16:23:11;4.63;;;2.50;;
42598;SDS011;28225;42.714;23.860;2022-10-26T16:25:43;7.05;;;5.13;;
42598;SDS011;28225;42.714;23.860;2022-10-26T16:28:11;11.07;;;6.05;;
42598;SDS011;28225;42.714;23.860;2022-10-26T16:30:37;8.32;;;3.38;;
42598;SDS011;28225;42.714;23.860;2022-10-26T16:33:03;3.97;;;2.67;;
42598;SDS011;28225;42.714;23.860;2022-10-26T16:35:28;5.85;;;3.63;;
42598;SDS011;28225;42.714;23.860;2022-10-26T16:37:54;7.22;;;3.70;;
42598;SDS011;28225;42.714;23.860;2022-10-26T16:40:19;4.22;;;1.80;;
42598;SDS011;28225;42.714;23.860;2022-10-26T16:42:45;1.25;;;0.90;;
42598;SDS011;28225;42.714;23.860;2022-10-26T16:45:11;9.57;;;3.85;;
42598;SDS011;28225;42.714;23.860;2022-10-26T16:47:37;5.25;;;2.58;;
42598;SDS011;28225;42.714;23.860;2022-10-26T16:50:04;4.45;;;2.25;;
42598;SDS011;28225;42.714;23.860;2022-10-26T16:52:32;3.28;;;2.10;;
42598;SDS011;28225;42.714;23.860;2022-10-26T16:54:58;6.03;;;2.38;;
42598;SDS011;28225;42.714;23.860;2022-10-26T16:57:24;9.25;;;4.20;;
42598;SDS011;28225;42.714;23.860;2022-10-26T16:59:49;3.63;;;2.13;;
42598;SDS011;28225;42.714;23.860;2022-10-26T17:02:15;1.65;;;1.55;;
42598;SDS011;28225;42.714;23.860;2022-10-26T17:04:40;3.58;;;1.77;;
42598;SDS011;28225;42.714;23.860;2022-10-26T17:07:06;2.05;;;1.58;;
42598;SDS011;28225;42.714;23.860;2022-10-26T17:09:31;2.22;;;1.67;;
42598;SDS011;28225;42.714;23.860;2022-10-26T17:11:57;7.70;;;1.73;;
42598;SDS011;28225;42.714;23.860;2022-10-26T17:14:22;1.63;;;1.33;;
42598;SDS011;28225;42.714;23.860;2022-10-26T17:16:48;5.38;;;1.50;;
42598;SDS011;28225;42.714;23.860;2022-10-26T17:19:13;3.47;;;1.00;;
42598;SDS011;28225;42.714;23.860;2022-10-26T17:21:39;1.48;;;1.38;;
42598;SDS011;28225;42.714;23.860;2022-10-26T17:24:04;4.28;;;1.42;;
42598;SDS011;28225;42.714;23.860;2022-10-26T17:26:30;1.75;;;1.38;;
42598;SDS011;28225;42.714;23.860;2022-10-26T17:28:56;2.00;;;1.58;;
42598;SDS011;28225;42.714;23.860;2022-10-26T17:31:23;3.08;;;1.20;;